Weather at RAF Castletown [CLOSED]

Public forecast

Using degrees Celsius for public forecast. Weather courtesy of forecast.io.

Closest aviation weather report (METAR) to RAF Castletown

Closest report is Wick Airport, 11.0 nm (20.4 km) SE.

2024/06/18 17:50 (retrieved 37 minutes ago)

EGPC 181750Z 33012KT 9999 6000E -SHRA FEW009 BKN032CB 09/08 Q1020

Closest aviation forecast (TAF) to RAF Castletown

Closest forecast is RAF Lossiemouth, 52.8 nm (97.8 km) S.

2024/06/18 18:36 (retrieved 0 seconds ago)

TAF TAF EGQS 181617Z 1818/1912 35014KT 9999 FEW015